sensor_id;sensor_type;location;lat;lon;timestamp;P1;durP1;ratioP1;P2;durP2;ratioP2
39740;SDS011;25426;53.478;10.190;2023-06-14T00:01:30;3.92;;;2.80;;
39740;SDS011;25426;53.478;10.190;2023-06-14T00:04:04;5.75;;;3.30;;
39740;SDS011;25426;53.478;10.190;2023-06-14T00:06:35;4.95;;;3.00;;
39740;SDS011;25426;53.478;10.190;2023-06-14T00:09:06;5.22;;;3.35;;
39740;SDS011;25426;53.478;10.190;2023-06-14T00:11:39;7.23;;;3.40;;
39740;SDS011;25426;53.478;10.190;2023-06-14T00:14:11;3.67;;;3.08;;
39740;SDS011;25426;53.478;10.190;2023-06-14T00:16:42;6.37;;;3.00;;
39740;SDS011;25426;53.478;10.190;2023-06-14T00:19:13;4.63;;;3.03;;
39740;SDS011;25426;53.478;10.190;2023-06-14T00:21:44;5.88;;;3.38;;
39740;SDS011;25426;53.478;10.190;2023-06-14T00:24:15;6.78;;;3.30;;
39740;SDS011;25426;53.478;10.190;2023-06-14T00:26:47;5.07;;;3.00;;
39740;SDS011;25426;53.478;10.190;2023-06-14T00:29:18;5.70;;;3.63;;
39740;SDS011;25426;53.478;10.190;2023-06-14T00:31:49;6.40;;;3.30;;
39740;SDS011;25426;53.478;10.190;2023-06-14T00:34:20;4.80;;;2.77;;
39740;SDS011;25426;53.478;10.190;2023-06-14T00:36:51;4.32;;;3.40;;
39740;SDS011;25426;53.478;10.190;2023-06-14T00:39:21;8.23;;;3.53;;
39740;SDS011;25426;53.478;10.190;2023-06-14T00:41:52;6.67;;;3.27;;
39740;SDS011;25426;53.478;10.190;2023-06-14T00:44:24;4.70;;;3.10;;
39740;SDS011;25426;53.478;10.190;2023-06-14T00:46:55;5.13;;;3.42;;
39740;SDS011;25426;53.478;10.190;2023-06-14T00:49:27;5.15;;;3.20;;
39740;SDS011;25426;53.478;10.190;2023-06-14T00:52:00;3.53;;;3.23;;
39740;SDS011;25426;53.478;10.190;2023-06-14T00:54:32;5.20;;;3.20;;
39740;SDS011;25426;53.478;10.190;2023-06-14T00:57:03;6.10;;;3.30;;
39740;SDS011;25426;53.478;10.190;2023-06-14T00:59:35;4.82;;;3.40;;
39740;SDS011;25426;53.478;10.190;2023-06-14T01:02:13;4.35;;;3.10;;
39740;SDS011;25426;53.478;10.190;2023-06-14T01:04:46;4.17;;;2.97;;
39740;SDS011;25426;53.478;10.190;2023-06-14T01:07:32;5.63;;;3.17;;
39740;SDS011;25426;53.478;10.190;2023-06-14T01:13:45;4.68;;;3.22;;
39740;SDS011;25426;53.478;10.190;2023-06-14T01:16:16;3.97;;;3.42;;
39740;SDS011;25426;53.478;10.190;2023-06-14T01:18:47;4.20;;;3.40;;
39740;SDS011;25426;53.478;10.190;2023-06-14T01:21:20;6.18;;;3.60;;
39740;SDS011;25426;53.478;10.190;2023-06-14T01:23:55;3.90;;;3.15;;
39740;SDS011;25426;53.478;10.190;2023-06-14T01:26:26;7.57;;;3.30;;
39740;SDS011;25426;53.478;10.190;2023-06-14T01:28:59;5.07;;;3.47;;
39740;SDS011;25426;53.478;10.190;2023-06-14T01:31:30;5.13;;;3.78;;
39740;SDS011;25426;53.478;10.190;2023-06-14T01:34:11;5.23;;;3.47;;
39740;SDS011;25426;53.478;10.190;2023-06-14T01:36:43;5.57;;;3.83;;
39740;SDS011;25426;53.478;10.190;2023-06-14T01:39:15;4.97;;;3.28;;
39740;SDS011;25426;53.478;10.190;2023-06-14T01:41:46;4.97;;;3.55;;
39740;SDS011;25426;53.478;10.190;2023-06-14T01:44:17;3.80;;;3.40;;
39740;SDS011;25426;53.478;10.190;2023-06-14T01:46:49;4.87;;;3.53;;
39740;SDS011;25426;53.478;10.190;2023-06-14T01:49:20;7.15;;;4.13;;
39740;SDS011;25426;53.478;10.190;2023-06-14T01:51:51;8.27;;;3.97;;
39740;SDS011;25426;53.478;10.190;2023-06-14T01:54:22;6.63;;;3.75;;
39740;SDS011;25426;53.478;10.190;2023-06-14T01:56:55;5.88;;;3.50;;
39740;SDS011;25426;53.478;10.190;2023-06-14T01:59:27;6.07;;;3.58;;
39740;SDS011;25426;53.478;10.190;2023-06-14T02:01:58;7.75;;;3.83;;
39740;SDS011;25426;53.478;10.190;2023-06-14T02:04:29;5.60;;;3.88;;
39740;SDS011;25426;53.478;10.190;2023-06-14T02:07:00;4.68;;;3.33;;
39740;SDS011;25426;53.478;10.190;2023-06-14T02:09:31;6.18;;;3.72;;
39740;SDS011;25426;53.478;10.190;2023-06-14T02:12:01;4.73;;;3.70;;
39740;SDS011;25426;53.478;10.190;2023-06-14T02:14:33;6.32;;;3.78;;
39740;SDS011;25426;53.478;10.190;2023-06-14T02:17:04;6.75;;;4.07;;
39740;SDS011;25426;53.478;10.190;2023-06-14T02:19:36;5.40;;;4.10;;
39740;SDS011;25426;53.478;10.190;2023-06-14T02:22:07;5.45;;;3.90;;
39740;SDS011;25426;53.478;10.190;2023-06-14T02:24:38;4.68;;;3.58;;
39740;SDS011;25426;53.478;10.190;2023-06-14T02:27:11;5.68;;;4.20;;
39740;SDS011;25426;53.478;10.190;2023-06-14T02:29:42;4.47;;;3.80;;
39740;SDS011;25426;53.478;10.190;2023-06-14T02:32:13;6.70;;;4.03;;
39740;SDS011;25426;53.478;10.190;2023-06-14T02:34:44;5.05;;;3.70;;
39740;SDS011;25426;53.478;10.190;2023-06-14T02:37:20;4.80;;;3.80;;
39740;SDS011;25426;53.478;10.190;2023-06-14T02:39:51;6.85;;;4.30;;
39740;SDS011;25426;53.478;10.190;2023-06-14T02:42:22;5.93;;;3.85;;
39740;SDS011;25426;53.478;10.190;2023-06-14T02:44:53;5.28;;;3.85;;
39740;SDS011;25426;53.478;10.190;2023-06-14T02:47:24;5.57;;;3.80;;
39740;SDS011;25426;53.478;10.190;2023-06-14T02:49:55;7.82;;;4.53;;
39740;SDS011;25426;53.478;10.190;2023-06-14T02:52:27;5.55;;;3.83;;
39740;SDS011;25426;53.478;10.190;2023-06-14T02:54:58;5.47;;;3.97;;
39740;SDS011;25426;53.478;10.190;2023-06-14T02:57:30;7.53;;;4.27;;
39740;SDS011;25426;53.478;10.190;2023-06-14T03:00:01;5.53;;;3.97;;
39740;SDS011;25426;53.478;10.190;2023-06-14T03:02:35;6.03;;;4.20;;
39740;SDS011;25426;53.478;10.190;2023-06-14T03:05:07;6.23;;;4.00;;
39740;SDS011;25426;53.478;10.190;2023-06-14T03:07:39;7.78;;;4.25;;
39740;SDS011;25426;53.478;10.190;2023-06-14T03:10:11;7.13;;;4.40;;
39740;SDS011;25426;53.478;10.190;2023-06-14T03:12:44;6.35;;;4.55;;
39740;SDS011;25426;53.478;10.190;2023-06-14T03:15:16;6.20;;;3.97;;
39740;SDS011;25426;53.478;10.190;2023-06-14T03:17:50;6.75;;;4.15;;
39740;SDS011;25426;53.478;10.190;2023-06-14T03:20:24;7.93;;;4.60;;
39740;SDS011;25426;53.478;10.190;2023-06-14T03:22:59;6.78;;;4.55;;
39740;SDS011;25426;53.478;10.190;2023-06-14T03:25:32;7.05;;;4.50;;
39740;SDS011;25426;53.478;10.190;2023-06-14T03:28:06;7.30;;;4.30;;
39740;SDS011;25426;53.478;10.190;2023-06-14T03:30:37;5.80;;;4.07;;
39740;SDS011;25426;53.478;10.190;2023-06-14T03:33:08;7.93;;;4.32;;
39740;SDS011;25426;53.478;10.190;2023-06-14T03:35:42;7.13;;;4.70;;
39740;SDS011;25426;53.478;10.190;2023-06-14T03:38:14;7.05;;;4.55;;
39740;SDS011;25426;53.478;10.190;2023-06-14T03:40:45;6.90;;;4.78;;
39740;SDS011;25426;53.478;10.190;2023-06-14T03:43:16;7.72;;;4.78;;
39740;SDS011;25426;53.478;10.190;2023-06-14T03:45:48;7.65;;;4.30;;
39740;SDS011;25426;53.478;10.190;2023-06-14T03:48:19;10.25;;;5.25;;
39740;SDS011;25426;53.478;10.190;2023-06-14T03:50:50;8.40;;;4.70;;
39740;SDS011;25426;53.478;10.190;2023-06-14T03:53:21;7.90;;;5.20;;
39740;SDS011;25426;53.478;10.190;2023-06-14T03:55:54;7.53;;;4.47;;
39740;SDS011;25426;53.478;10.190;2023-06-14T03:58:28;5.43;;;4.40;;
39740;SDS011;25426;53.478;10.190;2023-06-14T04:01:00;7.30;;;4.73;;
39740;SDS011;25426;53.478;10.190;2023-06-14T04:03:31;8.73;;;4.50;;
39740;SDS011;25426;53.478;10.190;2023-06-14T04:06:04;6.83;;;4.70;;
39740;SDS011;25426;53.478;10.190;2023-06-14T04:08:35;7.57;;;4.75;;
39740;SDS011;25426;53.478;10.190;2023-06-14T04:11:09;6.60;;;4.38;;
39740;SDS011;25426;53.478;10.190;2023-06-14T04:13:40;7.43;;;4.75;;
39740;SDS011;25426;53.478;10.190;2023-06-14T04:16:11;7.37;;;4.87;;
39740;SDS011;25426;53.478;10.190;2023-06-14T04:18:42;8.10;;;4.60;;
39740;SDS011;25426;53.478;10.190;2023-06-14T04:21:13;6.20;;;4.50;;
39740;SDS011;25426;53.478;10.190;2023-06-14T04:23:45;6.03;;;4.70;;
39740;SDS011;25426;53.478;10.190;2023-06-14T04:26:18;7.05;;;4.43;;
39740;SDS011;25426;53.478;10.190;2023-06-14T04:28:50;9.63;;;4.68;;
39740;SDS011;25426;53.478;10.190;2023-06-14T04:31:22;9.00;;;4.75;;
39740;SDS011;25426;53.478;10.190;2023-06-14T04:33:56;6.50;;;4.40;;
39740;SDS011;25426;53.478;10.190;2023-06-14T04:36:29;6.65;;;4.28;;
39740;SDS011;25426;53.478;10.190;2023-06-14T04:39:02;8.45;;;4.38;;
39740;SDS011;25426;53.478;10.190;2023-06-14T04:41:35;6.38;;;4.25;;
39740;SDS011;25426;53.478;10.190;2023-06-14T04:44:07;5.75;;;4.30;;
39740;SDS011;25426;53.478;10.190;2023-06-14T04:46:44;6.93;;;3.87;;
39740;SDS011;25426;53.478;10.190;2023-06-14T04:49:24;5.80;;;4.35;;
39740;SDS011;25426;53.478;10.190;2023-06-14T04:51:57;6.25;;;4.05;;
39740;SDS011;25426;53.478;10.190;2023-06-14T04:54:31;7.05;;;4.13;;
39740;SDS011;25426;53.478;10.190;2023-06-14T04:57:05;7.10;;;4.55;;
39740;SDS011;25426;53.478;10.190;2023-06-14T04:59:36;6.10;;;4.30;;
39740;SDS011;25426;53.478;10.190;2023-06-14T05:02:07;7.38;;;4.05;;
39740;SDS011;25426;53.478;10.190;2023-06-14T05:04:38;7.47;;;4.55;;
39740;SDS011;25426;53.478;10.190;2023-06-14T05:07:10;10.13;;;4.25;;
39740;SDS011;25426;53.478;10.190;2023-06-14T05:09:41;8.50;;;4.43;;
39740;SDS011;25426;53.478;10.190;2023-06-14T05:12:12;6.10;;;3.95;;
39740;SDS011;25426;53.478;10.190;2023-06-14T05:14:43;5.65;;;3.92;;
39740;SDS011;25426;53.478;10.190;2023-06-14T05:17:14;9.57;;;4.00;;
39740;SDS011;25426;53.478;10.190;2023-06-14T05:19:46;6.77;;;4.03;;
39740;SDS011;25426;53.478;10.190;2023-06-14T05:22:17;6.90;;;4.03;;
39740;SDS011;25426;53.478;10.190;2023-06-14T05:24:48;6.47;;;4.17;;
39740;SDS011;25426;53.478;10.190;2023-06-14T05:27:19;6.78;;;3.83;;
39740;SDS011;25426;53.478;10.190;2023-06-14T05:29:50;6.38;;;3.75;;
39740;SDS011;25426;53.478;10.190;2023-06-14T05:32:25;10.25;;;4.40;;
39740;SDS011;25426;53.478;10.190;2023-06-14T05:34:56;6.70;;;3.63;;
39740;SDS011;25426;53.478;10.190;2023-06-14T05:37:27;7.00;;;3.50;;
39740;SDS011;25426;53.478;10.190;2023-06-14T05:39:58;4.78;;;3.35;;
39740;SDS011;25426;53.478;10.190;2023-06-14T05:42:29;6.55;;;3.75;;
39740;SDS011;25426;53.478;10.190;2023-06-14T05:45:00;5.83;;;3.67;;
39740;SDS011;25426;53.478;10.190;2023-06-14T05:47:31;8.82;;;4.10;;
39740;SDS011;25426;53.478;10.190;2023-06-14T05:50:02;8.25;;;4.20;;
39740;SDS011;25426;53.478;10.190;2023-06-14T05:52:34;6.77;;;4.03;;
39740;SDS011;25426;53.478;10.190;2023-06-14T05:55:05;7.80;;;4.28;;
39740;SDS011;25426;53.478;10.190;2023-06-14T05:57:37;6.63;;;4.03;;
39740;SDS011;25426;53.478;10.190;2023-06-14T06:00:08;5.07;;;4.10;;
39740;SDS011;25426;53.478;10.190;2023-06-14T06:02:44;6.28;;;3.72;;
39740;SDS011;25426;53.478;10.190;2023-06-14T06:05:15;7.82;;;3.83;;
39740;SDS011;25426;53.478;10.190;2023-06-14T06:07:47;9.52;;;4.35;;
39740;SDS011;25426;53.478;10.190;2023-06-14T06:10:18;5.38;;;4.03;;
39740;SDS011;25426;53.478;10.190;2023-06-14T06:12:49;7.93;;;3.75;;
39740;SDS011;25426;53.478;10.190;2023-06-14T06:15:22;6.43;;;3.75;;
39740;SDS011;25426;53.478;10.190;2023-06-14T06:17:53;4.40;;;3.78;;
39740;SDS011;25426;53.478;10.190;2023-06-14T06:20:23;4.82;;;4.00;;
39740;SDS011;25426;53.478;10.190;2023-06-14T06:22:58;6.50;;;3.90;;
39740;SDS011;25426;53.478;10.190;2023-06-14T06:25:29;5.03;;;4.13;;
39740;SDS011;25426;53.478;10.190;2023-06-14T06:50:47;3.65;;;2.40;;
39740;SDS011;25426;53.478;10.190;2023-06-14T06:53:17;3.25;;;2.55;;
39740;SDS011;25426;53.478;10.190;2023-06-14T06:55:48;3.33;;;2.60;;
39740;SDS011;25426;53.478;10.190;2023-06-14T06:58:20;3.40;;;2.67;;
39740;SDS011;25426;53.478;10.190;2023-06-14T07:00:52;4.10;;;2.73;;
39740;SDS011;25426;53.478;10.190;2023-06-14T07:03:23;2.90;;;2.40;;
39740;SDS011;25426;53.478;10.190;2023-06-14T07:05:53;3.78;;;2.50;;
39740;SDS011;25426;53.478;10.190;2023-06-14T07:08:24;6.15;;;2.47;;
39740;SDS011;25426;53.478;10.190;2023-06-14T07:10:55;2.80;;;2.55;;
39740;SDS011;25426;53.478;10.190;2023-06-14T07:13:26;4.57;;;2.60;;
39740;SDS011;25426;53.478;10.190;2023-06-14T07:15:58;5.18;;;2.33;;
39740;SDS011;25426;53.478;10.190;2023-06-14T07:18:30;4.50;;;2.50;;
39740;SDS011;25426;53.478;10.190;2023-06-14T07:21:01;4.82;;;2.33;;
39740;SDS011;25426;53.478;10.190;2023-06-14T07:23:33;4.35;;;2.30;;
39740;SDS011;25426;53.478;10.190;2023-06-14T07:26:04;4.22;;;2.25;;
39740;SDS011;25426;53.478;10.190;2023-06-14T07:28:35;3.17;;;2.40;;
39740;SDS011;25426;53.478;10.190;2023-06-14T07:31:06;5.85;;;2.35;;
39740;SDS011;25426;53.478;10.190;2023-06-14T07:33:37;5.55;;;2.88;;
39740;SDS011;25426;53.478;10.190;2023-06-14T07:36:08;4.47;;;2.47;;
39740;SDS011;25426;53.478;10.190;2023-06-14T07:38:39;3.08;;;2.28;;
39740;SDS011;25426;53.478;10.190;2023-06-14T07:41:10;2.70;;;2.35;;
39740;SDS011;25426;53.478;10.190;2023-06-14T07:43:41;4.38;;;2.78;;
39740;SDS011;25426;53.478;10.190;2023-06-14T07:46:12;2.20;;;1.92;;
39740;SDS011;25426;53.478;10.190;2023-06-14T07:48:44;3.20;;;2.00;;
39740;SDS011;25426;53.478;10.190;2023-06-14T07:51:15;2.95;;;2.53;;
39740;SDS011;25426;53.478;10.190;2023-06-14T07:53:47;2.95;;;2.65;;
39740;SDS011;25426;53.478;10.190;2023-06-14T07:56:19;4.95;;;2.20;;
39740;SDS011;25426;53.478;10.190;2023-06-14T07:58:50;3.35;;;2.47;;
39740;SDS011;25426;53.478;10.190;2023-06-14T08:01:21;5.85;;;2.90;;
39740;SDS011;25426;53.478;10.190;2023-06-14T08:03:54;3.05;;;2.42;;
39740;SDS011;25426;53.478;10.190;2023-06-14T08:06:25;5.75;;;2.70;;
39740;SDS011;25426;53.478;10.190;2023-06-14T08:08:56;3.13;;;2.35;;
39740;SDS011;25426;53.478;10.190;2023-06-14T08:11:27;6.40;;;2.85;;
39740;SDS011;25426;53.478;10.190;2023-06-14T08:13:58;5.85;;;2.90;;
39740;SDS011;25426;53.478;10.190;2023-06-14T08:16:29;2.90;;;2.67;;
39740;SDS011;25426;53.478;10.190;2023-06-14T08:19:00;6.38;;;2.42;;
39740;SDS011;25426;53.478;10.190;2023-06-14T08:21:31;5.18;;;2.95;;
39740;SDS011;25426;53.478;10.190;2023-06-14T08:24:03;6.25;;;3.08;;
39740;SDS011;25426;53.478;10.190;2023-06-14T08:26:34;5.63;;;2.75;;
39740;SDS011;25426;53.478;10.190;2023-06-14T08:29:06;3.22;;;2.63;;
39740;SDS011;25426;53.478;10.190;2023-06-14T08:31:37;4.93;;;3.05;;
39740;SDS011;25426;53.478;10.190;2023-06-14T08:34:08;2.70;;;2.50;;
39740;SDS011;25426;53.478;10.190;2023-06-14T08:36:39;6.65;;;2.95;;
39740;SDS011;25426;53.478;10.190;2023-06-14T08:39:11;5.93;;;2.83;;
39740;SDS011;25426;53.478;10.190;2023-06-14T08:41:43;5.10;;;2.85;;
39740;SDS011;25426;53.478;10.190;2023-06-14T08:44:18;4.00;;;3.00;;
39740;SDS011;25426;53.478;10.190;2023-06-14T08:46:49;5.50;;;2.80;;
39740;SDS011;25426;53.478;10.190;2023-06-14T08:49:23;5.30;;;2.75;;
39740;SDS011;25426;53.478;10.190;2023-06-14T08:51:59;10.82;;;3.10;;
39740;SDS011;25426;53.478;10.190;2023-06-14T08:54:34;8.05;;;3.13;;
39740;SDS011;25426;53.478;10.190;2023-06-14T08:57:13;6.95;;;2.92;;
39740;SDS011;25426;53.478;10.190;2023-06-14T08:59:48;3.05;;;2.70;;
39740;SDS011;25426;53.478;10.190;2023-06-14T09:02:22;3.80;;;2.55;;
39740;SDS011;25426;53.478;10.190;2023-06-14T09:04:55;6.47;;;2.67;;
39740;SDS011;25426;53.478;10.190;2023-06-14T09:07:29;9.27;;;2.80;;
39740;SDS011;25426;53.478;10.190;2023-06-14T09:10:13;4.75;;;3.40;;
39740;SDS011;25426;53.478;10.190;2023-06-14T09:12:45;5.93;;;2.80;;
39740;SDS011;25426;53.478;10.190;2023-06-14T09:15:17;7.60;;;2.95;;
39740;SDS011;25426;53.478;10.190;2023-06-14T09:17:48;4.38;;;2.72;;
39740;SDS011;25426;53.478;10.190;2023-06-14T09:20:19;6.50;;;3.15;;
39740;SDS011;25426;53.478;10.190;2023-06-14T09:22:50;3.78;;;2.83;;
39740;SDS011;25426;53.478;10.190;2023-06-14T09:25:21;4.75;;;2.53;;
39740;SDS011;25426;53.478;10.190;2023-06-14T09:27:54;7.82;;;2.97;;
39740;SDS011;25426;53.478;10.190;2023-06-14T09:30:25;6.50;;;3.35;;
39740;SDS011;25426;53.478;10.190;2023-06-14T09:32:56;4.82;;;2.92;;
39740;SDS011;25426;53.478;10.190;2023-06-14T09:35:27;5.80;;;2.90;;
39740;SDS011;25426;53.478;10.190;2023-06-14T09:38:01;5.38;;;3.17;;
39740;SDS011;25426;53.478;10.190;2023-06-14T09:40:35;6.35;;;2.80;;
39740;SDS011;25426;53.478;10.190;2023-06-14T09:43:07;6.40;;;3.13;;
39740;SDS011;25426;53.478;10.190;2023-06-14T09:45:41;5.35;;;3.28;;
39740;SDS011;25426;53.478;10.190;2023-06-14T09:48:15;6.00;;;2.95;;
39740;SDS011;25426;53.478;10.190;2023-06-14T09:50:47;6.32;;;3.28;;
39740;SDS011;25426;53.478;10.190;2023-06-14T09:53:21;5.20;;;2.67;;
39740;SDS011;25426;53.478;10.190;2023-06-14T09:55:53;2.75;;;2.42;;
39740;SDS011;25426;53.478;10.190;2023-06-14T09:58:26;5.47;;;3.10;;
39740;SDS011;25426;53.478;10.190;2023-06-14T10:00:57;6.22;;;2.60;;
39740;SDS011;25426;53.478;10.190;2023-06-14T10:03:28;7.75;;;3.08;;
39740;SDS011;25426;53.478;10.190;2023-06-14T10:06:03;3.70;;;2.83;;
39740;SDS011;25426;53.478;10.190;2023-06-14T10:08:36;6.43;;;2.65;;
39740;SDS011;25426;53.478;10.190;2023-06-14T10:11:08;5.65;;;2.75;;
39740;SDS011;25426;53.478;10.190;2023-06-14T10:13:39;4.15;;;3.08;;
39740;SDS011;25426;53.478;10.190;2023-06-14T10:16:12;7.75;;;3.30;;
39740;SDS011;25426;53.478;10.190;2023-06-14T10:19:03;4.00;;;2.75;;
39740;SDS011;25426;53.478;10.190;2023-06-14T10:22:09;5.30;;;3.78;;
39740;SDS011;25426;53.478;10.190;2023-06-14T10:24:47;8.63;;;3.17;;
39740;SDS011;25426;53.478;10.190;2023-06-14T10:27:20;5.07;;;3.58;;
39740;SDS011;25426;53.478;10.190;2023-06-14T10:32:28;7.47;;;2.83;;
39740;SDS011;25426;53.478;10.190;2023-06-14T10:35:00;6.30;;;2.95;;
39740;SDS011;25426;53.478;10.190;2023-06-14T10:37:36;8.50;;;2.97;;
39740;SDS011;25426;53.478;10.190;2023-06-14T10:40:07;5.43;;;3.03;;
39740;SDS011;25426;53.478;10.190;2023-06-14T10:42:41;8.82;;;3.97;;
39740;SDS011;25426;53.478;10.190;2023-06-14T10:45:22;5.68;;;3.10;;
39740;SDS011;25426;53.478;10.190;2023-06-14T10:47:53;8.25;;;3.75;;
39740;SDS011;25426;53.478;10.190;2023-06-14T10:50:28;5.22;;;3.08;;
39740;SDS011;25426;53.478;10.190;2023-06-14T10:52:59;6.40;;;3.10;;
39740;SDS011;25426;53.478;10.190;2023-06-14T10:55:30;12.30;;;3.45;;
39740;SDS011;25426;53.478;10.190;2023-06-14T10:58:05;3.25;;;2.95;;
39740;SDS011;25426;53.478;10.190;2023-06-14T11:00:36;5.78;;;3.15;;
39740;SDS011;25426;53.478;10.190;2023-06-14T11:06:14;5.75;;;3.42;;
39740;SDS011;25426;53.478;10.190;2023-06-14T11:12:12;3.58;;;2.78;;
39740;SDS011;25426;53.478;10.190;2023-06-14T11:14:45;4.80;;;3.20;;
39740;SDS011;25426;53.478;10.190;2023-06-14T11:17:17;7.72;;;3.35;;
39740;SDS011;25426;53.478;10.190;2023-06-14T11:19:48;5.50;;;3.03;;
39740;SDS011;25426;53.478;10.190;2023-06-14T11:22:19;6.28;;;3.38;;
39740;SDS011;25426;53.478;10.190;2023-06-14T11:24:51;4.80;;;3.15;;
39740;SDS011;25426;53.478;10.190;2023-06-14T11:27:21;6.35;;;3.40;;
39740;SDS011;25426;53.478;10.190;2023-06-14T11:29:52;5.60;;;3.65;;
39740;SDS011;25426;53.478;10.190;2023-06-14T11:32:23;5.38;;;3.63;;
39740;SDS011;25426;53.478;10.190;2023-06-14T11:34:54;5.95;;;3.25;;
39740;SDS011;25426;53.478;10.190;2023-06-14T11:37:26;6.35;;;2.97;;
39740;SDS011;25426;53.478;10.190;2023-06-14T11:39:59;5.47;;;3.08;;
39740;SDS011;25426;53.478;10.190;2023-06-14T11:42:31;9.15;;;3.30;;
39740;SDS011;25426;53.478;10.190;2023-06-14T11:45:02;6.35;;;3.28;;
39740;SDS011;25426;53.478;10.190;2023-06-14T11:47:38;4.28;;;2.88;;
39740;SDS011;25426;53.478;10.190;2023-06-14T11:50:09;4.75;;;3.00;;
39740;SDS011;25426;53.478;10.190;2023-06-14T11:52:40;5.10;;;3.45;;
39740;SDS011;25426;53.478;10.190;2023-06-14T11:55:11;5.13;;;3.20;;
39740;SDS011;25426;53.478;10.190;2023-06-14T11:57:42;6.40;;;3.25;;
39740;SDS011;25426;53.478;10.190;2023-06-14T12:00:13;5.95;;;3.38;;
39740;SDS011;25426;53.478;10.190;2023-06-14T12:02:52;4.38;;;3.03;;
39740;SDS011;25426;53.478;10.190;2023-06-14T12:05:27;7.70;;;3.58;;
39740;SDS011;25426;53.478;10.190;2023-06-14T12:07:59;5.95;;;2.97;;
39740;SDS011;25426;53.478;10.190;2023-06-14T12:10:39;9.15;;;3.13;;
39740;SDS011;25426;53.478;10.190;2023-06-14T12:13:13;6.22;;;2.80;;
39740;SDS011;25426;53.478;10.190;2023-06-14T12:15:53;10.23;;;3.30;;
39740;SDS011;25426;53.478;10.190;2023-06-14T12:18:33;3.40;;;3.08;;
39740;SDS011;25426;53.478;10.190;2023-06-14T12:21:06;4.03;;;3.38;;
39740;SDS011;25426;53.478;10.190;2023-06-14T12:23:43;5.10;;;3.55;;
39740;SDS011;25426;53.478;10.190;2023-06-14T12:26:19;6.93;;;3.67;;
39740;SDS011;25426;53.478;10.190;2023-06-14T12:28:51;3.78;;;3.20;;
39740;SDS011;25426;53.478;10.190;2023-06-14T12:31:22;5.32;;;3.45;;
39740;SDS011;25426;53.478;10.190;2023-06-14T12:33:54;5.35;;;3.05;;
39740;SDS011;25426;53.478;10.190;2023-06-14T12:36:28;9.98;;;3.85;;
39740;SDS011;25426;53.478;10.190;2023-06-14T12:38:59;6.05;;;3.75;;
39740;SDS011;25426;53.478;10.190;2023-06-14T12:41:30;5.95;;;3.60;;
39740;SDS011;25426;53.478;10.190;2023-06-14T12:44:01;5.68;;;3.10;;
39740;SDS011;25426;53.478;10.190;2023-06-14T12:46:35;6.80;;;3.88;;
39740;SDS011;25426;53.478;10.190;2023-06-14T12:49:08;5.13;;;3.33;;
39740;SDS011;25426;53.478;10.190;2023-06-14T12:51:40;5.88;;;3.75;;
39740;SDS011;25426;53.478;10.190;2023-06-14T12:54:11;6.10;;;3.53;;
39740;SDS011;25426;53.478;10.190;2023-06-14T12:56:44;7.35;;;3.30;;
39740;SDS011;25426;53.478;10.190;2023-06-14T12:59:15;4.20;;;3.30;;
39740;SDS011;25426;53.478;10.190;2023-06-14T13:01:46;9.07;;;3.20;;
39740;SDS011;25426;53.478;10.190;2023-06-14T13:04:20;3.78;;;3.17;;
39740;SDS011;25426;53.478;10.190;2023-06-14T13:06:51;5.78;;;3.22;;
39740;SDS011;25426;53.478;10.190;2023-06-14T13:09:22;6.95;;;3.15;;
39740;SDS011;25426;53.478;10.190;2023-06-14T13:11:53;5.28;;;3.08;;
39740;SDS011;25426;53.478;10.190;2023-06-14T13:14:24;7.13;;;3.05;;
39740;SDS011;25426;53.478;10.190;2023-06-14T13:16:56;5.43;;;3.28;;
39740;SDS011;25426;53.478;10.190;2023-06-14T13:19:27;5.93;;;2.75;;
39740;SDS011;25426;53.478;10.190;2023-06-14T13:21:57;6.38;;;3.22;;
39740;SDS011;25426;53.478;10.190;2023-06-14T13:24:28;8.85;;;3.28;;
39740;SDS011;25426;53.478;10.190;2023-06-14T13:27:12;5.75;;;3.35;;
39740;SDS011;25426;53.478;10.190;2023-06-14T13:29:44;5.07;;;3.03;;
39740;SDS011;25426;53.478;10.190;2023-06-14T13:32:15;7.03;;;3.28;;
39740;SDS011;25426;53.478;10.190;2023-06-14T13:34:46;3.70;;;2.55;;
39740;SDS011;25426;53.478;10.190;2023-06-14T13:37:17;8.38;;;2.92;;
39740;SDS011;25426;53.478;10.190;2023-06-14T13:39:48;7.85;;;3.13;;
39740;SDS011;25426;53.478;10.190;2023-06-14T13:42:19;5.75;;;2.83;;
39740;SDS011;25426;53.478;10.190;2023-06-14T13:44:50;4.20;;;3.20;;
39740;SDS011;25426;53.478;10.190;2023-06-14T13:47:22;7.68;;;3.08;;
39740;SDS011;25426;53.478;10.190;2023-06-14T13:49:53;6.10;;;2.95;;
39740;SDS011;25426;53.478;10.190;2023-06-14T13:52:24;9.10;;;3.60;;
39740;SDS011;25426;53.478;10.190;2023-06-14T13:54:56;5.78;;;3.00;;
39740;SDS011;25426;53.478;10.190;2023-06-14T13:57:27;11.02;;;3.08;;
39740;SDS011;25426;53.478;10.190;2023-06-14T13:59:58;7.53;;;2.92;;
39740;SDS011;25426;53.478;10.190;2023-06-14T14:02:31;6.57;;;2.85;;
39740;SDS011;25426;53.478;10.190;2023-06-14T14:05:02;6.97;;;2.88;;
39740;SDS011;25426;53.478;10.190;2023-06-14T14:07:33;8.60;;;3.00;;
39740;SDS011;25426;53.478;10.190;2023-06-14T14:10:04;7.05;;;3.47;;
39740;SDS011;25426;53.478;10.190;2023-06-14T14:12:36;5.50;;;3.10;;
39740;SDS011;25426;53.478;10.190;2023-06-14T14:15:08;5.28;;;3.42;;
39740;SDS011;25426;53.478;10.190;2023-06-14T14:17:42;5.80;;;3.05;;
39740;SDS011;25426;53.478;10.190;2023-06-14T14:20:13;5.30;;;3.33;;
39740;SDS011;25426;53.478;10.190;2023-06-14T14:22:45;6.07;;;3.03;;
39740;SDS011;25426;53.478;10.190;2023-06-14T14:25:16;4.45;;;3.40;;
39740;SDS011;25426;53.478;10.190;2023-06-14T14:27:47;6.55;;;2.95;;
39740;SDS011;25426;53.478;10.190;2023-06-14T14:30:18;5.00;;;3.10;;
39740;SDS011;25426;53.478;10.190;2023-06-14T14:32:53;7.65;;;2.97;;
39740;SDS011;25426;53.478;10.190;2023-06-14T14:35:24;5.55;;;2.78;;
39740;SDS011;25426;53.478;10.190;2023-06-14T14:38:00;5.30;;;2.78;;
39740;SDS011;25426;53.478;10.190;2023-06-14T14:40:33;6.80;;;3.03;;
39740;SDS011;25426;53.478;10.190;2023-06-14T14:43:04;6.80;;;3.25;;
39740;SDS011;25426;53.478;10.190;2023-06-14T14:45:36;5.88;;;3.15;;
39740;SDS011;25426;53.478;10.190;2023-06-14T14:48:07;4.43;;;3.30;;
39740;SDS011;25426;53.478;10.190;2023-06-14T14:50:38;4.45;;;2.78;;
39740;SDS011;25426;53.478;10.190;2023-06-14T14:53:12;6.93;;;3.08;;
39740;SDS011;25426;53.478;10.190;2023-06-14T14:55:46;6.50;;;3.28;;
39740;SDS011;25426;53.478;10.190;2023-06-14T14:58:17;4.85;;;3.22;;
39740;SDS011;25426;53.478;10.190;2023-06-14T15:00:49;4.65;;;3.35;;
39740;SDS011;25426;53.478;10.190;2023-06-14T15:03:24;3.72;;;3.03;;
39740;SDS011;25426;53.478;10.190;2023-06-14T15:05:55;10.48;;;3.08;;
39740;SDS011;25426;53.478;10.190;2023-06-14T15:08:26;7.13;;;3.38;;
39740;SDS011;25426;53.478;10.190;2023-06-14T15:10:57;6.80;;;3.00;;
39740;SDS011;25426;53.478;10.190;2023-06-14T15:13:28;3.75;;;3.17;;
39740;SDS011;25426;53.478;10.190;2023-06-14T15:16:00;8.27;;;2.97;;
39740;SDS011;25426;53.478;10.190;2023-06-14T15:18:34;6.40;;;2.95;;
39740;SDS011;25426;53.478;10.190;2023-06-14T15:23:14;4.90;;;2.80;;
39740;SDS011;25426;53.478;10.190;2023-06-14T15:25:52;3.92;;;2.95;;
39740;SDS011;25426;53.478;10.190;2023-06-14T15:28:23;4.60;;;3.03;;
39740;SDS011;25426;53.478;10.190;2023-06-14T15:34:48;4.68;;;3.35;;
39740;SDS011;25426;53.478;10.190;2023-06-14T15:41:34;5.50;;;2.78;;
39740;SDS011;25426;53.478;10.190;2023-06-14T15:44:50;6.93;;;3.47;;
39740;SDS011;25426;53.478;10.190;2023-06-14T15:47:36;5.50;;;3.25;;
39740;SDS011;25426;53.478;10.190;2023-06-14T15:50:19;6.57;;;3.13;;